Time;durP1;ratioP1;P1;durP2;ratioP2;P2;SDS_P1;SDS_P2;PMS_P1;PMS_P2;Temp;Humidity;BMP_temperature;BMP_pressure;BME280_temperature;BME280_humidity;BME280_pressure;Samples;Min_cycle;Max_cycle;Signal;HPM_P1;HPM_P2
2022/12/25 00:01:14;;;;;;;0.00;0.00;;;10.60;99.90;;;;;;5028068;28;19924;-74
2022/12/25 00:03:39;;;;;;;0.00;0.00;;;10.60;99.90;;;;;;5035001;28;20485;-74
2022/12/25 00:06:05;;;;;;;0.00;0.00;;;10.60;99.90;;;;;;5040025;28;20100;-74
2022/12/25 00:08:31;;;;;;;0.00;0.00;;;10.60;99.90;;;;;;5035330;28;20616;-74
2022/12/25 00:11:11;;;;;;;0.00;0.00;;;10.60;99.90;;;;;;5033888;28;20467;-74
2022/12/25 00:13:37;;;;;;;0.00;0.00;;;10.60;99.90;;;;;;5038787;28;20037;-75
2022/12/25 00:16:17;;;;;;;0.00;0.00;;;10.60;99.90;;;;;;5031554;28;20124;-74
2022/12/25 00:18:43;;;;;;;0.00;0.00;;;10.60;99.90;;;;;;5043144;28;20029;-74
2022/12/25 00:21:09;;;;;;;0.00;0.00;;;10.50;99.90;;;;;;5034661;28;20032;-74
2022/12/25 00:23:37;;;;;;;0.00;0.00;;;10.50;99.90;;;;;;5035279;28;20028;-73
2022/12/25 00:26:05;;;;;;;0.00;0.00;;;10.50;99.90;;;;;;5034360;28;20064;-74
2022/12/25 00:28:30;;;;;;;0.00;0.00;;;10.50;99.90;;;;;;5038305;28;20029;-74
2022/12/25 00:30:57;;;;;;;0.00;0.00;;;10.50;99.90;;;;;;5031431;28;20075;-74
2022/12/25 00:33:24;;;;;;;;;;;10.60;99.90;;;;;;5034513;28;20068;-74
2022/12/25 00:36:00;;;;;;;0.00;0.00;;;10.60;99.90;;;;;;5047694;28;19931;-74
2022/12/25 00:38:26;;;;;;;0.00;0.00;;;10.60;99.90;;;;;;5032719;28;20437;-74
2022/12/25 00:40:52;;;;;;;;;;;10.60;99.90;;;;;;5036438;28;20474;-74
2022/12/25 00:43:20;;;;;;;0.00;0.00;;;10.60;99.90;;;;;;5036295;28;19912;-74
2022/12/25 00:45:59;;;;;;;0.00;0.00;;;10.60;99.90;;;;;;5032259;28;20018;-74
2022/12/25 00:48:26;;;;;;;0.00;0.00;;;10.60;99.90;;;;;;5045741;28;20018;-73
2022/12/25 00:50:56;;;;;;;0.00;0.00;;;10.60;99.90;;;;;;5037207;28;20017;-73
2022/12/25 00:53:23;;;;;;;0.00;0.00;;;10.60;99.90;;;;;;5037356;28;20049;-74
2022/12/25 00:55:51;;;;;;;0.00;0.00;;;10.60;99.90;;;;;;5033210;28;20018;-74
2022/12/25 00:58:16;;;;;;;0.00;0.00;;;10.60;99.90;;;;;;5034148;28;20100;-74
2022/12/25 01:00:43;;;;;;;0.00;0.00;;;10.60;99.90;;;;;;5028067;28;20096;-73
2022/12/25 01:03:10;;;;;;;;;;;10.60;99.90;;;;;;5033639;28;20033;-74
2022/12/25 01:05:35;;;;;;;0.00;0.00;;;10.60;99.90;;;;;;5034179;28;19920;-74
2022/12/25 01:08:07;;;;;;;0.00;0.00;;;10.50;99.90;;;;;;5031357;28;20822;-74
2022/12/25 01:10:33;;;;;;;0.00;0.00;;;10.40;99.90;;;;;;5030240;28;20022;-74
2022/12/25 01:12:58;;;;;;;0.00;0.00;;;10.40;99.90;;;;;;5030666;28;21509;-74
2022/12/25 01:15:24;;;;;;;0.00;0.00;;;10.40;99.90;;;;;;5033775;28;20044;-74
2022/12/25 01:17:50;;;;;;;0.00;0.00;;;10.40;99.90;;;;;;5026576;28;20036;-73
2022/12/25 01:20:16;;;;;;;0.00;0.00;;;10.40;99.90;;;;;;5031093;28;20693;-74
2022/12/25 01:22:42;;;;;;;;;;;10.40;99.90;;;;;;5036745;28;20029;-74
2022/12/25 01:25:09;;;;;;;0.00;0.00;;;10.40;99.90;;;;;;5030141;28;20519;-74
2022/12/25 01:27:35;;;;;;;;;;;10.30;99.90;;;;;;5029475;28;20094;-73
2022/12/25 01:30:00;;;;;;;0.00;0.00;;;10.30;99.90;;;;;;5033886;28;20365;-74
2022/12/25 01:32:26;;;;;;;0.00;0.00;;;10.30;99.90;;;;;;5027460;28;20025;-74
2022/12/25 01:34:51;;;;;;;0.00;0.00;;;10.30;99.90;;;;;;5039823;28;20061;-74
2022/12/25 01:37:17;;;;;;;0.00;0.00;;;10.30;99.90;;;;;;5030895;28;20494;-73
2022/12/25 01:39:43;;;;;;;0.00;0.00;;;10.30;99.90;;;;;;5047078;28;20025;-74
2022/12/25 01:42:16;;;;;;;0.00;0.00;;;10.30;99.90;;;;;;5033534;28;20056;-73
2022/12/25 01:44:45;;;;;;;0.00;0.00;;;10.20;99.90;;;;;;5026374;28;20017;-73
2022/12/25 01:47:12;;;;;;;0.00;0.00;;;10.30;99.90;;;;;;5045401;28;20048;-74
2022/12/25 01:49:39;;;;;;;;;;;10.20;99.90;;;;;;5033332;28;20467;-74
2022/12/25 01:52:09;;;;;;;0.00;0.00;;;10.20;99.90;;;;;;5047101;28;20362;-74
2022/12/25 01:54:39;;;;;;;0.00;0.00;;;10.30;99.90;;;;;;5036026;28;20434;-74
2022/12/25 01:57:09;;;;;;;0.00;0.00;;;10.30;99.90;;;;;;5048800;28;20371;-74
2022/12/25 01:59:35;;;;;;;0.00;0.00;;;10.40;99.90;;;;;;5034202;28;20483;-73
2022/12/25 02:02:02;;;;;;;0.00;0.00;;;10.30;99.90;;;;;;5028991;28;20094;-74
2022/12/25 02:04:38;;;;;;;;;;;10.40;99.90;;;;;;5034006;28;20306;-74
2022/12/25 02:07:11;;;;;;;0.00;0.00;;;10.40;99.90;;;;;;5034057;28;20008;-73
2022/12/25 02:09:37;;;;;;;0.00;0.00;;;10.30;99.90;;;;;;5028205;28;20406;-74
2022/12/25 02:12:04;;;;;;;0.00;0.00;;;10.40;99.90;;;;;;5035196;28;20095;-73
2022/12/25 02:14:33;;;;;;;0.00;0.00;;;10.40;99.90;;;;;;5028357;28;20043;-74
2022/12/25 02:20:11;;;;;;;0.00;0.00;;;10.40;99.90;;;;;;5031962;28;20026;-73
2022/12/25 02:22:46;;;;;;;0.00;0.00;;;10.40;99.90;;;;;;5035184;28;20553;-73
2022/12/25 02:25:45;;;;;;;0.00;0.00;;;10.40;99.90;;;;;;5028096;28;20130;-74
2022/12/25 02:28:26;;;;;;;0.00;0.00;;;10.40;99.90;;;;;;5028844;28;20025;-73
2022/12/25 02:31:12;;;;;;;0.00;0.00;;;10.40;99.90;;;;;;5021232;28;20021;-73
2022/12/25 02:34:07;;;;;;;0.00;0.00;;;10.40;99.90;;;;;;5040744;28;20025;-74
2022/12/25 02:36:50;;;;;;;0.00;0.00;;;10.40;99.90;;;;;;5049417;28;20128;-74
2022/12/25 03:07:55;;;;;;;0.00;0.00;;;10.20;99.90;;;;;;5031367;28;20056;-73
2022/12/25 03:13:13;;;;;;;0.00;0.00;;;10.30;99.90;;;;;;5037862;28;20083;-73
2022/12/25 03:18:31;;;;;;;0.00;0.00;;;10.30;99.90;;;;;;5026168;28;20064;-74
2022/12/25 03:26:56;;;;;;;0.00;0.00;;;10.10;99.90;;;;;;5010497;28;20438;-74
2022/12/25 03:32:41;;;;;;;0.00;0.00;;;10.00;99.90;;;;;;5033416;28;20044;-74
2022/12/25 03:35:42;;;;;;;0.00;0.00;;;10.00;99.90;;;;;;5033360;28;20133;-73
2022/12/25 04:37:00;;;;;;;0.00;0.00;;;9.90;99.90;;;;;;5018419;28;20033;-74
2022/12/25 04:39:26;;;;;;;0.00;0.00;;;9.90;99.90;;;;;;5033290;28;20550;-74
2022/12/25 04:41:52;;;;;;;0.00;0.00;;;9.80;99.90;;;;;;5033660;28;20026;-74
2022/12/25 04:44:17;;;;;;;0.00;0.00;;;9.70;99.90;;;;;;5037590;28;20649;-74
2022/12/25 04:46:43;;;;;;;0.00;0.00;;;9.70;99.90;;;;;;5032085;28;20045;-74
2022/12/25 04:49:08;;;;;;;0.00;0.00;;;9.70;99.90;;;;;;5032210;28;20018;-75
2022/12/25 04:51:35;;;;;;;0.00;0.00;;;9.70;99.90;;;;;;5029730;28;20017;-74
2022/12/25 04:54:01;;;;;;;0.00;0.00;;;9.60;99.90;;;;;;5044080;28;20092;-74
2022/12/25 04:56:26;;;;;;;0.00;0.00;;;9.60;99.90;;;;;;5032638;28;20467;-74
2022/12/25 04:58:52;;;;;;;0.00;0.00;;;9.70;99.90;;;;;;5032044;28;20018;-74
2022/12/25 05:01:18;;;;;;;0.00;0.00;;;9.70;99.90;;;;;;5030874;28;20021;-73
2022/12/25 05:03:45;;;;;;;0.00;0.00;;;9.70;99.90;;;;;;5030264;28;20178;-74
2022/12/25 05:06:13;;;;;;;0.00;0.00;;;9.60;99.90;;;;;;5035005;28;20498;-74
2022/12/25 05:08:45;;;;;;;0.00;0.00;;;9.50;99.90;;;;;;5030753;28;20025;-74
2022/12/25 05:11:13;;;;;;;0.00;0.00;;;9.40;99.90;;;;;;5029691;28;20044;-74
2022/12/25 05:13:40;;;;;;;0.00;0.00;;;9.40;99.90;;;;;;5035147;28;20041;-74
2022/12/25 05:16:07;;;;;;;0.00;0.00;;;9.40;99.90;;;;;;5030840;28;20880;-74
2022/12/25 05:18:33;;;;;;;0.00;0.00;;;9.40;99.90;;;;;;5032984;28;20033;-74
2022/12/25 05:20:58;;;;;;;0.00;0.00;;;9.30;99.90;;;;;;5036390;28;20024;-74
2022/12/25 05:23:24;;;;;;;0.00;0.00;;;9.30;99.90;;;;;;5034852;28;20375;-72
2022/12/25 05:25:50;;;;;;;0.00;0.00;;;9.20;99.90;;;;;;5031790;28;20478;-73
2022/12/25 05:28:15;;;;;;;0.00;0.00;;;9.20;99.90;;;;;;5034139;28;20095;-74
2022/12/25 05:30:41;;;;;;;0.00;0.00;;;9.10;99.90;;;;;;5027540;28;20021;-73
2022/12/25 05:33:08;;;;;;;0.00;0.00;;;9.00;99.90;;;;;;5033951;28;20026;-74
2022/12/25 05:35:35;;;;;;;;;;;9.00;99.90;;;;;;5035830;28;20036;-74
2022/12/25 05:38:00;;;;;;;0.00;0.00;;;9.10;99.90;;;;;;5032327;28;19959;-73
2022/12/25 05:40:26;;;;;;;0.00;0.00;;;9.00;99.90;;;;;;5032475;28;20083;-73
2022/12/25 05:42:52;;;;;;;0.00;0.00;;;9.00;99.90;;;;;;5031695;28;20525;-73
2022/12/25 05:45:17;;;;;;;0.00;0.00;;;8.90;99.90;;;;;;5035884;28;20013;-73
2022/12/25 05:47:43;;;;;;;0.00;0.00;;;8.90;99.90;;;;;;5034290;28;20505;-74
2022/12/25 05:50:08;;;;;;;0.00;0.00;;;8.80;99.90;;;;;;5027389;28;20052;-74
2022/12/25 05:52:34;;;;;;;0.00;0.00;;;8.80;99.90;;;;;;5034509;28;20116;-74
2022/12/25 05:55:00;;;;;;;0.00;0.00;;;8.80;99.90;;;;;;5041616;28;20029;-74
2022/12/25 05:57:30;;;;;;;0.00;0.00;;;8.80;99.90;;;;;;5030702;28;20061;-74
2022/12/25 06:00:01;;;;;;;0.25;0.25;;;8.70;99.90;;;;;;5030545;28;20029;-73
2022/12/25 06:02:27;;;;;;;0.00;0.00;;;8.70;99.90;;;;;;5030045;28;20095;-74
2022/12/25 06:04:56;;;;;;;;;;;8.70;99.90;;;;;;5027431;28;20029;-74
2022/12/25 06:07:22;;;;;;;0.00;0.00;;;8.70;99.90;;;;;;5037705;28;19904;-73
2022/12/25 06:09:47;;;;;;;0.00;0.00;;;8.70;99.90;;;;;;5032178;28;20022;-74
2022/12/25 06:12:13;;;;;;;0.00;0.00;;;8.70;99.90;;;;;;5043356;28;20378;-74
2022/12/25 06:14:39;;;;;;;0.00;0.00;;;8.70;99.90;;;;;;5031033;28;20111;-74
2022/12/25 06:17:07;;;;;;;0.00;0.00;;;8.70;99.90;;;;;;5030741;28;20016;-74
2022/12/25 06:19:33;;;;;;;0.00;0.00;;;8.70;99.90;;;;;;5030327;28;20378;-74
2022/12/25 06:21:59;;;;;;;0.00;0.00;;;8.70;99.90;;;;;;5029184;28;20021;-74
2022/12/25 06:24:24;;;;;;;0.00;0.00;;;8.60;99.90;;;;;;5030246;28;20025;-74
2022/12/25 06:26:50;;;;;;;0.00;0.00;;;8.60;99.90;;;;;;5030934;28;20029;-73
2022/12/25 06:29:18;;;;;;;0.00;0.00;;;8.60;99.90;;;;;;5033154;28;20021;-74
2022/12/25 06:31:44;;;;;;;0.00;0.00;;;8.60;99.90;;;;;;5029401;28;20451;-73
2022/12/25 06:34:09;;;;;;;0.00;0.00;;;8.60;99.90;;;;;;5035523;28;20486;-73
2022/12/25 06:36:37;;;;;;;0.00;0.00;;;8.70;99.90;;;;;;5036861;28;20036;-73
2022/12/25 06:39:03;;;;;;;0.00;0.00;;;8.70;99.90;;;;;;5028280;28;20060;-73
2022/12/25 06:41:29;;;;;;;0.00;0.00;;;8.70;99.90;;;;;;5033107;28;20040;-73
2022/12/25 06:43:56;;;;;;;;;;;8.70;99.90;;;;;;5028819;28;20113;-73
2022/12/25 06:46:24;;;;;;;0.00;0.00;;;8.70;99.90;;;;;;5031746;28;20358;-74
2022/12/25 06:48:50;;;;;;;0.00;0.00;;;8.60;99.90;;;;;;5028147;28;20022;-73
2022/12/25 06:51:17;;;;;;;0.00;0.00;;;8.70;99.90;;;;;;5027941;28;20013;-74
2022/12/25 06:53:47;;;;;;;0.00;0.00;;;8.70;99.90;;;;;;5027442;28;20113;-74
2022/12/25 06:56:15;;;;;;;0.00;0.00;;;8.70;99.90;;;;;;5026334;28;20022;-74
2022/12/25 06:58:45;;;;;;;0.00;0.00;;;8.70;99.90;;;;;;5033503;28;20029;-74
2022/12/25 07:01:28;;;;;;;0.00;0.00;;;8.70;99.90;;;;;;5051234;28;20049;-74
2022/12/25 07:03:57;;;;;;;0.00;0.00;;;8.70;99.90;;;;;;5035951;28;20147;-73
2022/12/25 07:06:23;;;;;;;0.00;0.00;;;8.80;99.90;;;;;;5032609;28;20125;-73
2022/12/25 07:08:49;;;;;;;0.00;0.00;;;8.90;99.90;;;;;;5029789;28;20021;-73
2022/12/25 07:11:17;;;;;;;0.00;0.00;;;8.90;99.90;;;;;;5035903;28;20051;-73
2022/12/25 07:13:43;;;;;;;0.00;0.00;;;8.90;99.90;;;;;;5044026;28;20264;-73
2022/12/25 07:16:09;;;;;;;0.00;0.00;;;8.90;99.90;;;;;;5032302;28;20032;-73
2022/12/25 07:18:35;;;;;;;0.00;0.00;;;9.00;99.90;;;;;;5031313;28;20123;-73
2022/12/25 07:21:08;;;;;;;0.00;0.00;;;9.00;99.90;;;;;;5031310;28;20137;-73
2022/12/25 07:23:36;;;;;;;0.00;0.00;;;9.00;99.90;;;;;;5032492;28;20047;-74
2022/12/25 07:26:02;;;;;;;0.00;0.00;;;9.20;99.90;;;;;;5032497;28;20051;-72
2022/12/25 07:28:29;;;;;;;0.00;0.00;;;9.30;99.90;;;;;;5032454;28;20034;-75
2022/12/25 07:31:06;;;;;;;0.00;0.00;;;9.40;99.90;;;;;;5035314;28;20414;-73
2022/12/25 07:33:32;;;;;;;;;;;9.60;99.90;;;;;;5030950;28;20040;-74
2022/12/25 07:35:59;;;;;;;0.00;0.00;;;9.80;99.90;;;;;;5030792;28;19909;-74
2022/12/25 07:38:26;;;;;;;0.00;0.00;;;10.00;99.90;;;;;;5032050;28;20033;-74
2022/12/25 07:40:52;;;;;;;0.00;0.00;;;10.20;99.90;;;;;;5029425;28;20040;-74
2022/12/25 07:43:18;;;;;;;0.00;0.00;;;10.30;99.90;;;;;;5029993;28;20028;-74
2022/12/25 07:45:44;;;;;;;0.00;0.00;;;10.50;99.90;;;;;;5031427;28;20087;-74
2022/12/25 07:48:10;;;;;;;0.00;0.00;;;10.60;99.90;;;;;;5033421;28;20025;-74
2022/12/25 07:50:35;;;;;;;0.00;0.00;;;10.60;99.90;;;;;;5029704;28;20030;-75
2022/12/25 07:53:08;;;;;;;0.00;0.00;;;10.60;99.90;;;;;;5031245;28;20026;-75
2022/12/25 07:55:37;;;;;;;0.00;0.00;;;10.60;99.90;;;;;;5031454;28;20108;-75
2022/12/25 07:58:03;;;;;;;1.17;0.20;;;10.60;99.90;;;;;;5030184;28;20082;-75
2022/12/25 08:00:31;;;;;;;0.00;0.00;;;10.70;99.90;;;;;;5030957;28;20510;-75
2022/12/25 08:02:57;;;;;;;0.00;0.00;;;10.90;99.90;;;;;;5032200;28;20343;-75
2022/12/25 08:05:23;;;;;;;0.00;0.00;;;11.00;99.90;;;;;;5031378;28;20030;-75
2022/12/25 08:07:53;;;;;;;0.00;0.00;;;11.10;99.90;;;;;;5031468;28;20032;-75
2022/12/25 08:10:19;;;;;;;0.00;0.00;;;11.10;99.90;;;;;;5028952;28;20021;-74
2022/12/25 08:12:46;;;;;;;0.00;0.00;;;11.00;99.90;;;;;;5029225;28;20018;-75
2022/12/25 08:15:15;;;;;;;0.00;0.00;;;10.90;99.90;;;;;;5031696;28;20034;-74
2022/12/25 08:17:41;;;;;;;0.00;0.00;;;10.90;99.90;;;;;;5028619;28;20385;-74
2022/12/25 08:20:08;;;;;;;0.00;0.00;;;10.90;99.90;;;;;;5031620;28;20097;-74
2022/12/25 08:22:34;;;;;;;0.00;0.00;;;10.90;99.90;;;;;;5028596;28;20037;-75
2022/12/25 08:25:05;;;;;;;0.00;0.00;;;11.00;99.90;;;;;;5030318;28;20044;-76
2022/12/25 08:27:30;;;;;;;0.00;0.00;;;11.00;99.90;;;;;;5033037;28;20025;-76
2022/12/25 08:29:56;;;;;;;0.00;0.00;;;11.00;99.90;;;;;;5034151;28;20501;-74
2022/12/25 08:32:22;;;;;;;0.00;0.00;;;11.00;99.90;;;;;;5028134;28;20275;-74
2022/12/25 08:34:49;;;;;;;0.00;0.00;;;11.20;99.90;;;;;;5029619;28;20021;-74
2022/12/25 08:37:15;;;;;;;0.00;0.00;;;11.30;99.90;;;;;;5031012;28;20047;-74
2022/12/25 08:39:44;;;;;;;0.00;0.00;;;11.30;99.90;;;;;;5031436;28;20429;-74
2022/12/25 08:42:16;;;;;;;0.00;0.00;;;11.40;99.90;;;;;;5031587;28;20030;-75
2022/12/25 08:44:46;;;;;;;0.00;0.00;;;11.30;99.90;;;;;;5031906;28;20427;-74
2022/12/25 08:47:12;;;;;;;0.00;0.00;;;11.20;99.90;;;;;;5034526;28;20022;-75
2022/12/25 08:49:37;;;;;;;0.00;0.00;;;11.00;99.90;;;;;;5029789;28;20650;-76
2022/12/25 08:52:03;;;;;;;0.00;0.00;;;11.00;99.90;;;;;;5030512;28;20912;-76
2022/12/25 08:54:32;;;;;;;0.00;0.00;;;11.30;99.90;;;;;;5036736;28;20033;-76
2022/12/25 08:56:59;;;;;;;0.00;0.00;;;11.70;99.90;;;;;;5026528;28;20261;-75
2022/12/25 08:59:26;;;;;;;;;;;12.00;99.90;;;;;;5032898;28;20500;-76
2022/12/25 09:01:52;;;;;;;0.00;0.00;;;12.00;99.90;;;;;;5028749;28;19963;-75
2022/12/25 09:04:20;;;;;;;0.00;0.00;;;12.00;99.90;;;;;;5042431;28;20038;-75
2022/12/25 09:06:46;;;;;;;0.05;0.05;;;12.00;99.90;;;;;;5031797;28;20045;-76
2022/12/25 09:09:12;;;;;;;0.00;0.00;;;11.70;99.90;;;;;;5029055;28;20123;-75
2022/12/25 09:11:37;;;;;;;0.07;0.07;;;11.50;99.90;;;;;;5031176;28;20028;-74
2022/12/25 09:14:03;;;;;;;0.00;0.00;;;11.20;99.90;;;;;;5031253;28;20276;-75
2022/12/25 09:16:28;;;;;;;0.00;0.00;;;11.00;99.90;;;;;;5033054;28;20040;-74
2022/12/25 09:18:57;;;;;;;0.00;0.00;;;10.90;99.90;;;;;;5028350;28;20025;-74
2022/12/25 09:21:23;;;;;;;0.00;0.00;;;10.90;99.90;;;;;;5030896;28;20120;-75
2022/12/25 09:23:48;;;;;;;0.00;0.00;;;11.00;99.90;;;;;;5027686;28;20108;-75
2022/12/25 09:26:16;;;;;;;0.00;0.00;;;12.30;99.90;;;;;;5031067;28;20027;-76
2022/12/25 09:28:49;;;;;;;0.00;0.00;;;15.00;99.90;;;;;;5030384;28;20036;-75
2022/12/25 09:31:14;;;;;;;0.00;0.00;;;17.70;99.90;;;;;;5029234;28;20025;-74
2022/12/25 09:33:40;;;;;;;0.00;0.00;;;16.60;99.90;;;;;;5027899;28;20025;-74
2022/12/25 09:36:07;;;;;;;0.00;0.00;;;14.90;99.90;;;;;;5029555;28;20548;-74
2022/12/25 09:38:34;;;;;;;0.10;0.10;;;13.60;99.90;;;;;;5030549;28;20021;-74
2022/12/25 09:41:18;;;;;;;;;;;12.90;99.90;;;;;;5027919;28;20030;-75
2022/12/25 09:43:55;;;;;;;0.00;0.00;;;12.60;99.90;;;;;;5033684;28;19909;-76
2022/12/25 09:46:26;;;;;;;0.00;0.00;;;12.70;99.90;;;;;;5027544;28;20033;-75
2022/12/25 09:49:05;;;;;;;0.00;0.00;;;12.80;99.90;;;;;;5030447;28;20013;-75
2022/12/25 09:51:34;;;;;;;0.10;0.10;;;12.30;99.90;;;;;;5025369;28;20398;-74
2022/12/25 09:54:07;;;;;;;0.00;0.00;;;12.00;99.90;;;;;;5028506;28;20493;-74
2022/12/25 09:56:33;;;;;;;0.00;0.00;;;11.70;99.90;;;;;;5027845;28;20130;-74
2022/12/25 09:59:00;;;;;;;0.00;0.00;;;11.60;99.90;;;;;;5027723;28;20029;-75
2022/12/25 10:02:19;;;;;;;0.00;0.00;;;11.40;99.90;;;;;;5029210;28;20040;-74
2022/12/25 10:05:09;;;;;;;0.00;0.00;;;11.30;99.90;;;;;;5022941;28;20490;-75
2022/12/25 10:07:46;;;;;;;0.00;0.00;;;11.60;99.90;;;;;;5027516;28;20026;-74
2022/12/25 10:10:50;;;;;;;0.03;0.03;;;11.80;99.90;;;;;;5031981;28;20108;-75
2022/12/25 10:13:28;;;;;;;0.00;0.00;;;11.50;99.90;;;;;;5029480;28;20072;-74
2022/12/25 10:16:44;;;;;;;0.20;0.20;;;11.60;99.90;;;;;;5028020;28;20615;-74
2022/12/25 10:19:26;;;;;;;0.00;0.00;;;11.70;99.90;;;;;;4993847;28;20098;-74
2022/12/25 10:21:57;;;;;;;0.00;0.00;;;11.50;99.90;;;;;;4990195;28;20511;-75
2022/12/25 10:24:55;;;;;;;0.03;0.03;;;11.40;99.90;;;;;;5005854;28;20037;-76
2022/12/25 10:27:31;;;;;;;0.00;0.00;;;11.40;99.90;;;;;;5025758;28;20042;-76
2022/12/25 10:29:58;;;;;;;0.20;0.20;;;11.40;99.90;;;;;;5033461;28;20029;-75
2022/12/25 10:32:25;;;;;;;0.00;0.00;;;11.40;99.90;;;;;;5029105;28;20029;-74
2022/12/25 10:34:51;;;;;;;0.00;0.00;;;11.50;99.90;;;;;;5026944;28;20025;-75
2022/12/25 10:37:24;;;;;;;0.00;0.00;;;11.80;99.90;;;;;;5026276;28;20017;-74
2022/12/25 10:39:56;;;;;;;0.00;0.00;;;12.40;99.90;;;;;;5025946;28;20044;-75
2022/12/25 10:42:32;;;;;;;0.00;0.00;;;13.90;99.90;;;;;;5041339;28;20037;-76
2022/12/25 10:45:05;;;;;;;0.15;0.10;;;15.50;99.90;;;;;;5029367;28;20082;-76
2022/12/25 10:47:33;;;;;;;0.00;0.00;;;17.40;99.90;;;;;;5028626;28;20033;-75
2022/12/25 10:50:06;;;;;;;0.00;0.00;;;19.50;94.80;;;;;;5025788;28;20356;-75
2022/12/25 10:52:32;;;;;;;0.00;0.00;;;19.00;92.50;;;;;;5028079;28;20096;-75
2022/12/25 10:54:57;;;;;;;0.00;0.00;;;20.60;85.50;;;;;;5023073;28;20115;-74
2022/12/25 10:57:27;;;;;;;0.00;0.00;;;19.50;82.00;;;;;;5023506;28;20503;-73
2022/12/25 10:59:55;;;;;;;0.00;0.00;;;19.80;82.60;;;;;;5029555;28;20045;-74
2022/12/25 11:02:28;;;;;;;0.00;0.00;;;17.60;87.00;;;;;;5029332;28;20032;-75
2022/12/25 11:05:06;;;;;;;0.10;0.10;;;15.80;95.70;;;;;;5023183;28;20089;-75
2022/12/25 11:07:45;;;;;;;0.00;0.00;;;14.90;98.90;;;;;;5027212;28;20018;-75
2022/12/25 11:10:24;;;;;;;0.00;0.00;;;14.20;99.90;;;;;;5031259;28;20099;-76
2022/12/25 11:12:51;;;;;;;0.00;0.00;;;13.80;99.90;;;;;;5044073;28;20111;-75
2022/12/25 11:15:40;;;;;;;0.00;0.00;;;13.50;99.90;;;;;;5031083;28;20059;-74
2022/12/25 11:18:33;;;;;;;0.00;0.00;;;13.40;99.90;;;;;;5027692;28;20032;-74
2022/12/25 11:21:13;;;;;;;0.00;0.00;;;13.60;99.90;;;;;;5022141;28;20117;-74
2022/12/25 11:23:48;;;;;;;0.00;0.00;;;13.60;99.90;;;;;;5042167;28;20136;-75
2022/12/25 11:26:15;;;;;;;0.00;0.00;;;13.40;99.90;;;;;;5027702;28;20017;-76
2022/12/25 11:28:42;;;;;;;0.00;0.00;;;13.30;99.90;;;;;;5028684;28;20026;-77
2022/12/25 11:31:15;;;;;;;0.00;0.00;;;13.10;99.90;;;;;;5025031;28;20072;-72
2022/12/25 11:33:45;;;;;;;0.00;0.00;;;13.10;99.90;;;;;;5030215;28;20029;-73
2022/12/25 11:36:32;;;;;;;0.00;0.00;;;13.10;99.90;;;;;;5027662;28;20029;-73
2022/12/25 11:39:11;;;;;;;0.10;0.10;;;13.20;99.90;;;;;;5025466;28;20103;-73
2022/12/25 11:41:40;;;;;;;0.00;0.00;;;13.20;99.90;;;;;;5028941;28;21059;-73
2022/12/25 11:44:30;;;;;;;1.13;0.28;;;13.00;99.90;;;;;;5029338;28;20049;-74
2022/12/25 11:47:07;;;;;;;0.08;0.08;;;12.70;99.90;;;;;;5027914;28;20043;-77
2022/12/25 11:49:41;;;;;;;0.00;0.00;;;12.60;99.90;;;;;;5030408;28;20021;-74
2022/12/25 11:52:09;;;;;;;0.00;0.00;;;12.80;99.90;;;;;;5030264;28;20044;-74
2022/12/25 11:54:47;;;;;;;0.10;0.10;;;12.70;99.90;;;;;;5029826;28;20033;-73
2022/12/25 11:57:14;;;;;;;0.00;0.00;;;12.60;99.90;;;;;;5029931;28;20048;-73
2022/12/25 11:59:55;;;;;;;0.10;0.10;;;12.50;99.90;;;;;;5033358;28;20105;-74
2022/12/25 12:02:45;;;;;;;0.00;0.00;;;12.60;99.90;;;;;;5033987;28;20044;-73
2022/12/25 12:05:25;;;;;;;0.00;0.00;;;12.60;99.90;;;;;;5045386;28;20773;-73
2022/12/25 12:07:57;;;;;;;0.10;0.10;;;12.50;99.90;;;;;;5029012;28;20029;-74
2022/12/25 12:10:50;;;;;;;0.00;0.00;;;12.50;99.90;;;;;;5028819;28;20017;-74
2022/12/25 12:13:35;;;;;;;0.00;0.00;;;12.60;99.90;;;;;;5032859;28;20025;-74
2022/12/25 12:16:04;;;;;;;0.00;0.00;;;12.70;99.90;;;;;;5038957;28;20048;-72
2022/12/25 12:18:32;;;;;;;0.20;0.20;;;12.50;99.90;;;;;;5037774;28;20036;-73
2022/12/25 12:21:08;;;;;;;0.00;0.00;;;12.20;99.90;;;;;;5033735;28;20026;-75
2022/12/25 12:23:47;;;;;;;0.00;0.00;;;12.40;99.90;;;;;;5028155;28;20031;-73
2022/12/25 12:26:26;;;;;;;0.00;0.00;;;12.50;99.90;;;;;;5029054;28;20017;-73
2022/12/25 12:28:55;;;;;;;0.00;0.00;;;12.40;99.90;;;;;;5031540;28;20117;-74
2022/12/25 12:31:21;;;;;;;0.00;0.00;;;12.50;99.90;;;;;;5030143;28;20676;-75
2022/12/25 12:33:55;;;;;;;0.00;0.00;;;12.70;99.90;;;;;;5029405;28;20029;-73
2022/12/25 12:36:25;;;;;;;0.00;0.00;;;12.80;99.90;;;;;;5028275;28;20104;-73
2022/12/25 12:38:54;;;;;;;0.00;0.00;;;12.80;99.90;;;;;;5031454;28;20025;-73
2022/12/25 12:41:21;;;;;;;0.00;0.00;;;13.00;99.90;;;;;;5029557;28;20021;-73
2022/12/25 12:43:53;;;;;;;0.00;0.00;;;13.00;99.90;;;;;;5029449;28;20021;-74
2022/12/25 12:46:27;;;;;;;0.00;0.00;;;12.90;99.90;;;;;;5030365;28;20530;-74
2022/12/25 12:49:15;;;;;;;0.00;0.00;;;12.90;99.90;;;;;;5029336;28;20030;-74
2022/12/25 12:51:40;;;;;;;0.00;0.00;;;12.80;99.90;;;;;;5029513;28;20018;-75
2022/12/25 12:54:23;;;;;;;0.00;0.00;;;12.80;99.90;;;;;;5032497;28;20740;-74
2022/12/25 12:56:55;;;;;;;0.10;0.10;;;12.90;99.90;;;;;;5028866;28;20018;-73
2022/12/25 12:59:22;;;;;;;0.00;0.00;;;12.70;99.90;;;;;;5034261;28;20029;-73
2022/12/25 13:02:13;;;;;;;0.00;0.00;;;12.70;99.90;;;;;;5031114;28;20024;-73
2022/12/25 13:05:04;;;;;;;0.00;0.00;;;12.70;99.90;;;;;;5044384;28;20018;-74
2022/12/25 13:07:34;;;;;;;0.00;0.00;;;12.60;99.90;;;;;;5029350;28;20025;-73
2022/12/25 13:10:23;;;;;;;0.00;0.00;;;12.60;99.90;;;;;;5036445;28;20017;-73
2022/12/25 13:12:57;;;;;;;0.00;0.00;;;12.50;99.90;;;;;;5047570;28;20140;-73
2022/12/25 13:15:26;;;;;;;0.00;0.00;;;12.60;99.90;;;;;;5046998;28;20029;-73
2022/12/25 13:17:56;;;;;;;0.00;0.00;;;12.60;99.90;;;;;;5030104;28;20610;-72
2022/12/25 13:20:54;;;;;;;0.00;0.00;;;12.60;99.90;;;;;;5029398;28;20029;-73
2022/12/25 13:23:34;;;;;;;0.00;0.00;;;12.40;99.90;;;;;;5030864;28;20033;-73
2022/12/25 13:26:03;;;;;;;0.00;0.00;;;12.20;99.90;;;;;;5033362;28;20559;-72
2022/12/25 13:28:31;;;;;;;0.00;0.00;;;12.10;99.90;;;;;;5030472;28;20018;-73
2022/12/25 13:31:24;;;;;;;0.00;0.00;;;12.00;99.90;;;;;;5032177;28;20020;-73
2022/12/25 13:34:27;;;;;;;0.00;0.00;;;11.90;99.90;;;;;;5022160;28;20379;-73
2022/12/25 13:36:54;;;;;;;0.00;0.00;;;11.90;99.90;;;;;;5029950;28;20117;-73
2022/12/25 13:39:23;;;;;;;0.00;0.00;;;11.90;99.90;;;;;;5026870;28;20026;-73
2022/12/25 13:42:04;;;;;;;0.00;0.00;;;11.80;99.90;;;;;;5030004;28;20051;-73
2022/12/25 13:44:48;;;;;;;0.00;0.00;;;11.70;99.90;;;;;;5028557;28;20029;-73
2022/12/25 13:47:25;;;;;;;0.00;0.00;;;11.70;99.90;;;;;;5029203;28;20033;-72
2022/12/25 13:49:55;;;;;;;;;;;11.60;99.90;;;;;;5026844;28;20021;-72
2022/12/25 13:52:30;;;;;;;0.40;0.40;;;11.60;99.90;;;;;;5029924;28;19908;-73
2022/12/25 13:55:03;;;;;;;0.00;0.00;;;11.60;99.90;;;;;;5024873;28;20025;-72
2022/12/25 13:57:37;;;;;;;0.00;0.00;;;11.50;99.90;;;;;;5028523;28;20028;-72
2022/12/25 14:00:05;;;;;;;0.00;0.00;;;11.40;99.90;;;;;;5029737;28;20061;-73
2022/12/25 14:02:35;;;;;;;0.00;0.00;;;11.30;99.90;;;;;;5046697;28;20377;-72
2022/12/25 14:05:02;;;;;;;0.17;0.17;;;11.20;99.90;;;;;;5028032;28;20478;-72
2022/12/25 14:07:27;;;;;;;0.00;0.00;;;11.20;99.90;;;;;;5029018;28;20104;-72
2022/12/25 14:10:00;;;;;;;0.00;0.00;;;11.10;99.90;;;;;;5027853;28;20612;-72
2022/12/25 14:12:29;;;;;;;0.00;0.00;;;11.00;99.90;;;;;;5028392;28;20031;-72
2022/12/25 14:14:57;;;;;;;0.00;0.00;;;10.80;99.90;;;;;;5032064;28;20391;-72
2022/12/25 14:17:23;;;;;;;0.00;0.00;;;10.70;99.90;;;;;;5028290;28;20029;-72
2022/12/25 14:19:59;;;;;;;0.00;0.00;;;10.60;99.90;;;;;;5028825;28;20041;-72
2022/12/25 14:22:27;;;;;;;0.10;0.10;;;10.50;99.90;;;;;;5026930;28;20038;-72
2022/12/25 14:24:53;;;;;;;0.00;0.00;;;10.50;99.90;;;;;;5026950;28;20075;-72
2022/12/25 14:27:24;;;;;;;0.00;0.00;;;10.40;99.90;;;;;;5028286;28;20022;-72
2022/12/25 14:29:53;;;;;;;0.15;0.13;;;10.30;99.90;;;;;;5026628;28;20032;-72
2022/12/25 14:32:22;;;;;;;0.17;0.10;;;10.30;99.90;;;;;;5027633;28;20113;-73
2022/12/25 14:34:54;;;;;;;0.20;0.20;;;10.30;99.90;;;;;;5026993;28;20025;-72
2022/12/25 14:37:26;;;;;;;1.55;0.40;;;10.20;99.90;;;;;;5026148;28;20017;-72
2022/12/25 14:40:03;;;;;;;0.00;0.00;;;10.20;99.90;;;;;;5030468;28;20025;-72
2022/12/25 14:42:30;;;;;;;;;;;10.10;99.90;;;;;;5028462;28;20027;-72
2022/12/25 14:45:05;;;;;;;0.10;0.10;;;10.00;99.90;;;;;;5033189;28;20573;-71
2022/12/25 14:47:37;;;;;;;0.00;0.00;;;9.90;99.90;;;;;;5028061;28;20737;-72
2022/12/25 14:50:13;;;;;;;0.00;0.00;;;9.80;99.90;;;;;;5034829;28;20029;-71
2022/12/25 14:52:43;;;;;;;0.00;0.00;;;9.70;99.90;;;;;;5026738;28;20022;-72
2022/12/25 14:55:24;;;;;;;0.00;0.00;;;9.60;99.90;;;;;;5027558;28;20757;-72
2022/12/25 14:57:55;;;;;;;0.00;0.00;;;9.60;99.90;;;;;;5028727;28;20028;-72